sensor_id;sensor_type;location;lat;lon;timestamp;temperature;humidity
17148;DHT22;8689;47.364;8.796;2023-12-04T02:13:22;-6.70;99.90
17148;DHT22;8689;47.364;8.796;2023-12-04T02:15:53;-6.60;99.90
17148;DHT22;8689;47.364;8.796;2023-12-04T02:18:24;-6.50;99.90
17148;DHT22;8689;47.364;8.796;2023-12-04T02:20:54;-6.40;99.90
17148;DHT22;8689;47.364;8.796;2023-12-04T02:23:27;-6.40;99.90
17148;DHT22;8689;47.364;8.796;2023-12-04T02:25:59;-6.30;99.90
17148;DHT22;8689;47.364;8.796;2023-12-04T07:49:02;-4.70;99.90
17148;DHT22;8689;47.364;8.796;2023-12-04T07:51:44;-4.60;99.90
17148;DHT22;8689;47.364;8.796;2023-12-04T07:54:13;-4.50;99.90
17148;DHT22;8689;47.364;8.796;2023-12-04T07:56:46;-4.40;99.90
17148;DHT22;8689;47.364;8.796;2023-12-04T07:59:33;-4.20;99.90
17148;DHT22;8689;47.364;8.796;2023-12-04T08:02:04;-4.10;99.90
17148;DHT22;8689;47.364;8.796;2023-12-04T08:04:32;-4.00;99.90
17148;DHT22;8689;47.364;8.796;2023-12-04T08:06:59;-4.00;99.90
17148;DHT22;8689;47.364;8.796;2023-12-04T08:09:25;-3.90;99.90
17148;DHT22;8689;47.364;8.796;2023-12-04T08:11:55;-3.90;99.90
17148;DHT22;8689;47.364;8.796;2023-12-04T08:14:23;-3.70;99.90
17148;DHT22;8689;47.364;8.796;2023-12-04T08:16:50;-3.70;99.90
17148;DHT22;8689;47.364;8.796;2023-12-04T08:19:17;-3.60;99.90
17148;DHT22;8689;47.364;8.796;2023-12-04T08:21:45;-3.60;99.90
17148;DHT22;8689;47.364;8.796;2023-12-04T08:24:22;-3.50;99.90
17148;DHT22;8689;47.364;8.796;2023-12-04T08:27:03;-3.50;99.90
17148;DHT22;8689;47.364;8.796;2023-12-04T08:29:30;-3.50;99.90
17148;DHT22;8689;47.364;8.796;2023-12-04T08:31:57;-3.30;99.90
17148;DHT22;8689;47.364;8.796;2023-12-04T08:34:24;-3.20;99.90
17148;DHT22;8689;47.364;8.796;2023-12-04T08:36:53;-3.00;99.90
17148;DHT22;8689;47.364;8.796;2023-12-04T08:39:20;-2.80;99.90
17148;DHT22;8689;47.364;8.796;2023-12-04T08:41:48;-2.60;99.90
17148;DHT22;8689;47.364;8.796;2023-12-04T08:44:15;-2.30;99.90
17148;DHT22;8689;47.364;8.796;2023-12-04T08:46:42;-2.20;99.90
17148;DHT22;8689;47.364;8.796;2023-12-04T08:49:10;-2.20;99.90
17148;DHT22;8689;47.364;8.796;2023-12-04T08:51:37;-2.40;99.90
17148;DHT22;8689;47.364;8.796;2023-12-04T08:54:06;-2.60;99.90
17148;DHT22;8689;47.364;8.796;2023-12-04T08:56:34;-2.80;99.90
17148;DHT22;8689;47.364;8.796;2023-12-04T08:59:01;-3.00;99.90
17148;DHT22;8689;47.364;8.796;2023-12-04T09:01:28;-3.10;99.90
17148;DHT22;8689;47.364;8.796;2023-12-04T09:03:55;-3.10;99.90
17148;DHT22;8689;47.364;8.796;2023-12-04T09:06:22;-3.10;99.90
17148;DHT22;8689;47.364;8.796;2023-12-04T09:08:49;-3.00;99.90
17148;DHT22;8689;47.364;8.796;2023-12-04T09:11:18;-2.80;99.90
17148;DHT22;8689;47.364;8.796;2023-12-04T09:13:45;-2.60;99.90
17148;DHT22;8689;47.364;8.796;2023-12-04T09:16:12;-2.40;99.90
17148;DHT22;8689;47.364;8.796;2023-12-04T09:18:39;-2.20;99.90
17148;DHT22;8689;47.364;8.796;2023-12-04T09:21:06;-2.00;99.90
17148;DHT22;8689;47.364;8.796;2023-12-04T09:23:36;-1.80;99.90
17148;DHT22;8689;47.364;8.796;2023-12-04T09:26:09;-1.60;99.90
17148;DHT22;8689;47.364;8.796;2023-12-04T09:28:38;-1.40;99.90
17148;DHT22;8689;47.364;8.796;2023-12-04T09:31:06;-1.20;99.90
17148;DHT22;8689;47.364;8.796;2023-12-04T09:33:33;-1.00;99.90
17148;DHT22;8689;47.364;8.796;2023-12-04T09:36:07;-1.00;99.90
17148;DHT22;8689;47.364;8.796;2023-12-04T09:38:37;-1.10;99.90
17148;DHT22;8689;47.364;8.796;2023-12-04T09:41:12;-1.10;99.90
17148;DHT22;8689;47.364;8.796;2023-12-04T09:43:54;-0.90;99.90
17148;DHT22;8689;47.364;8.796;2023-12-04T09:46:21;-0.70;99.90
17148;DHT22;8689;47.364;8.796;2023-12-04T09:48:51;-0.50;99.90
17148;DHT22;8689;47.364;8.796;2023-12-04T09:51:20;-0.40;99.90
17148;DHT22;8689;47.364;8.796;2023-12-04T09:53:49;-0.30;99.90
17148;DHT22;8689;47.364;8.796;2023-12-04T09:56:22;-0.20;99.90
17148;DHT22;8689;47.364;8.796;2023-12-04T09:58:56;0.00;99.90
17148;DHT22;8689;47.364;8.796;2023-12-04T10:01:24;-0.10;99.90
17148;DHT22;8689;47.364;8.796;2023-12-04T10:07:10;-0.20;99.90
17148;DHT22;8689;47.364;8.796;2023-12-04T10:09:38;0.00;99.90
17148;DHT22;8689;47.364;8.796;2023-12-04T10:12:06;0.10;99.90
17148;DHT22;8689;47.364;8.796;2023-12-04T10:14:35;0.20;99.90
17148;DHT22;8689;47.364;8.796;2023-12-04T10:17:14;0.20;99.90
17148;DHT22;8689;47.364;8.796;2023-12-04T10:19:41;0.50;99.90
17148;DHT22;8689;47.364;8.796;2023-12-04T10:22:17;0.60;99.90
17148;DHT22;8689;47.364;8.796;2023-12-04T10:24:51;0.70;99.90
17148;DHT22;8689;47.364;8.796;2023-12-04T10:27:18;0.50;99.90
17148;DHT22;8689;47.364;8.796;2023-12-04T10:29:48;0.10;99.90
17148;DHT22;8689;47.364;8.796;2023-12-04T10:32:18;-0.10;99.90
17148;DHT22;8689;47.364;8.796;2023-12-04T10:34:51;-0.10;99.90
17148;DHT22;8689;47.364;8.796;2023-12-04T10:37:20;-0.20;99.90
17148;DHT22;8689;47.364;8.796;2023-12-04T10:39:49;-0.10;99.90
17148;DHT22;8689;47.364;8.796;2023-12-04T10:43:09;0.20;99.90
17148;DHT22;8689;47.364;8.796;2023-12-04T10:45:53;0.40;99.90
17148;DHT22;8689;47.364;8.796;2023-12-04T10:48:20;0.60;99.90
17148;DHT22;8689;47.364;8.796;2023-12-04T10:50:48;0.70;99.90
17148;DHT22;8689;47.364;8.796;2023-12-04T10:53:16;0.80;99.90
17148;DHT22;8689;47.364;8.796;2023-12-04T10:55:44;1.00;99.90
17148;DHT22;8689;47.364;8.796;2023-12-04T10:58:13;1.00;99.90
17148;DHT22;8689;47.364;8.796;2023-12-04T11:00:43;1.00;99.90
17148;DHT22;8689;47.364;8.796;2023-12-04T11:03:14;0.90;99.90
17148;DHT22;8689;47.364;8.796;2023-12-04T11:05:44;0.70;99.90
17148;DHT22;8689;47.364;8.796;2023-12-04T11:08:15;0.60;99.90
17148;DHT22;8689;47.364;8.796;2023-12-04T11:10:45;0.50;99.90
17148;DHT22;8689;47.364;8.796;2023-12-04T11:13:16;0.60;99.90
17148;DHT22;8689;47.364;8.796;2023-12-04T11:15:47;0.70;99.90
17148;DHT22;8689;47.364;8.796;2023-12-04T11:18:21;0.70;99.90
17148;DHT22;8689;47.364;8.796;2023-12-04T11:20:54;0.70;99.90
17148;DHT22;8689;47.364;8.796;2023-12-04T11:23:23;0.80;99.90
17148;DHT22;8689;47.364;8.796;2023-12-04T11:25:51;0.80;99.90
17148;DHT22;8689;47.364;8.796;2023-12-04T11:28:22;0.90;99.90
17148;DHT22;8689;47.364;8.796;2023-12-04T11:30:50;1.10;99.90
17148;DHT22;8689;47.364;8.796;2023-12-04T11:33:20;1.20;99.90
17148;DHT22;8689;47.364;8.796;2023-12-04T11:35:49;1.30;99.90
17148;DHT22;8689;47.364;8.796;2023-12-04T11:38:17;1.20;99.90
17148;DHT22;8689;47.364;8.796;2023-12-04T11:40:46;1.20;99.90
17148;DHT22;8689;47.364;8.796;2023-12-04T11:43:24;1.20;99.90
17148;DHT22;8689;47.364;8.796;2023-12-04T11:46:08;1.30;99.90
17148;DHT22;8689;47.364;8.796;2023-12-04T11:48:38;1.40;99.90
17148;DHT22;8689;47.364;8.796;2023-12-04T11:51:06;1.30;99.90
17148;DHT22;8689;47.364;8.796;2023-12-04T11:53:37;1.40;99.90
17148;DHT22;8689;47.364;8.796;2023-12-04T11:56:09;1.40;99.90
17148;DHT22;8689;47.364;8.796;2023-12-04T11:58:42;1.20;99.90
17148;DHT22;8689;47.364;8.796;2023-12-04T12:01:10;1.00;99.90
17148;DHT22;8689;47.364;8.796;2023-12-04T12:03:38;0.80;99.90
17148;DHT22;8689;47.364;8.796;2023-12-04T12:06:06;0.80;99.90
17148;DHT22;8689;47.364;8.796;2023-12-04T12:08:33;0.80;99.90
17148;DHT22;8689;47.364;8.796;2023-12-04T12:11:00;0.90;99.90
17148;DHT22;8689;47.364;8.796;2023-12-04T12:13:28;1.00;99.90
17148;DHT22;8689;47.364;8.796;2023-12-04T12:15:55;1.10;99.90
17148;DHT22;8689;47.364;8.796;2023-12-04T12:18:30;1.20;99.90
17148;DHT22;8689;47.364;8.796;2023-12-04T12:21:19;1.40;99.90
17148;DHT22;8689;47.364;8.796;2023-12-04T12:23:46;1.50;99.90
17148;DHT22;8689;47.364;8.796;2023-12-04T12:26:14;1.60;99.90
17148;DHT22;8689;47.364;8.796;2023-12-04T12:28:41;1.60;99.90
17148;DHT22;8689;47.364;8.796;2023-12-04T12:31:08;1.60;99.90
17148;DHT22;8689;47.364;8.796;2023-12-04T12:33:35;1.60;99.90
17148;DHT22;8689;47.364;8.796;2023-12-04T12:36:02;1.70;99.90
17148;DHT22;8689;47.364;8.796;2023-12-04T12:38:31;1.60;99.90
17148;DHT22;8689;47.364;8.796;2023-12-04T12:41:01;1.60;99.90
17148;DHT22;8689;47.364;8.796;2023-12-04T12:43:31;1.60;99.90
17148;DHT22;8689;47.364;8.796;2023-12-04T12:45:59;1.60;99.90
17148;DHT22;8689;47.364;8.796;2023-12-04T12:48:27;1.50;99.90
17148;DHT22;8689;47.364;8.796;2023-12-04T12:50:55;1.60;99.90
17148;DHT22;8689;47.364;8.796;2023-12-04T12:53:22;1.60;99.90
17148;DHT22;8689;47.364;8.796;2023-12-04T12:55:52;1.60;99.90
17148;DHT22;8689;47.364;8.796;2023-12-04T12:58:20;1.70;99.90
17148;DHT22;8689;47.364;8.796;2023-12-04T13:00:50;1.80;99.90
17148;DHT22;8689;47.364;8.796;2023-12-04T13:06:06;1.80;99.90
17148;DHT22;8689;47.364;8.796;2023-12-04T13:08:45;1.70;99.90
17148;DHT22;8689;47.364;8.796;2023-12-04T13:11:34;1.60;99.90
17148;DHT22;8689;47.364;8.796;2023-12-04T13:14:02;1.40;99.90
17148;DHT22;8689;47.364;8.796;2023-12-04T13:16:37;1.30;99.90
17148;DHT22;8689;47.364;8.796;2023-12-04T13:19:05;1.00;99.90
17148;DHT22;8689;47.364;8.796;2023-12-04T13:21:35;0.80;99.90
17148;DHT22;8689;47.364;8.796;2023-12-04T13:24:05;0.70;99.90
17148;DHT22;8689;47.364;8.796;2023-12-04T13:26:36;0.70;99.90
17148;DHT22;8689;47.364;8.796;2023-12-04T13:29:03;0.70;99.90
17148;DHT22;8689;47.364;8.796;2023-12-04T13:31:31;0.80;99.90
17148;DHT22;8689;47.364;8.796;2023-12-04T13:34:09;0.70;99.90
17148;DHT22;8689;47.364;8.796;2023-12-04T13:36:37;0.70;99.90
17148;DHT22;8689;47.364;8.796;2023-12-04T13:39:17;0.70;99.90
17148;DHT22;8689;47.364;8.796;2023-12-04T13:41:51;0.80;99.90
17148;DHT22;8689;47.364;8.796;2023-12-04T13:44:36;0.80;99.90
17148;DHT22;8689;47.364;8.796;2023-12-04T13:47:04;0.70;99.90
17148;DHT22;8689;47.364;8.796;2023-12-04T13:49:31;0.70;99.90
17148;DHT22;8689;47.364;8.796;2023-12-04T13:51:59;0.60;99.90
17148;DHT22;8689;47.364;8.796;2023-12-04T13:54:26;0.60;99.90
17148;DHT22;8689;47.364;8.796;2023-12-04T13:57:10;0.60;99.90
17148;DHT22;8689;47.364;8.796;2023-12-04T13:59:44;0.40;99.90
17148;DHT22;8689;47.364;8.796;2023-12-04T14:02:31;0.30;99.90
17148;DHT22;8689;47.364;8.796;2023-12-04T14:05:03;0.30;99.90
17148;DHT22;8689;47.364;8.796;2023-12-04T14:07:30;0.20;99.90
17148;DHT22;8689;47.364;8.796;2023-12-04T14:10:02;0.10;99.90
17148;DHT22;8689;47.364;8.796;2023-12-04T14:15:37;0.00;99.90
17148;DHT22;8689;47.364;8.796;2023-12-04T14:18:05;0.00;99.90
17148;DHT22;8689;47.364;8.796;2023-12-04T14:20:32;-0.10;99.90
17148;DHT22;8689;47.364;8.796;2023-12-04T14:27:03;-0.10;99.90
17148;DHT22;8689;47.364;8.796;2023-12-04T14:29:34;-0.30;99.90
17148;DHT22;8689;47.364;8.796;2023-12-04T14:32:01;-0.30;99.90
17148;DHT22;8689;47.364;8.796;2023-12-04T14:34:29;-0.40;99.90
17148;DHT22;8689;47.364;8.796;2023-12-04T14:36:56;-0.40;99.90
17148;DHT22;8689;47.364;8.796;2023-12-04T14:39:23;-0.40;99.90
17148;DHT22;8689;47.364;8.796;2023-12-04T14:43:39;-0.50;99.90
17148;DHT22;8689;47.364;8.796;2023-12-04T14:45:25;-0.50;99.90
17148;DHT22;8689;47.364;8.796;2023-12-04T14:47:52;-0.50;99.90
17148;DHT22;8689;47.364;8.796;2023-12-04T14:50:22;-0.50;99.90
17148;DHT22;8689;47.364;8.796;2023-12-04T14:52:50;-0.50;99.90
17148;DHT22;8689;47.364;8.796;2023-12-04T14:55:25;-0.50;99.90
17148;DHT22;8689;47.364;8.796;2023-12-04T14:58:33;-0.60;99.90
17148;DHT22;8689;47.364;8.796;2023-12-04T15:01:18;-0.60;99.90
17148;DHT22;8689;47.364;8.796;2023-12-04T15:04:12;-0.60;99.90
17148;DHT22;8689;47.364;8.796;2023-12-04T15:06:53;-0.60;99.90
17148;DHT22;8689;47.364;8.796;2023-12-04T15:09:34;-0.60;99.90
17148;DHT22;8689;47.364;8.796;2023-12-04T15:12:31;-0.60;99.90
17148;DHT22;8689;47.364;8.796;2023-12-04T15:15:17;-0.60;99.90
17148;DHT22;8689;47.364;8.796;2023-12-04T15:18:17;-0.60;99.90
17148;DHT22;8689;47.364;8.796;2023-12-04T15:27:37;-0.60;99.90
17148;DHT22;8689;47.364;8.796;2023-12-04T15:30:04;-0.60;99.90
17148;DHT22;8689;47.364;8.796;2023-12-04T15:53:01;-1.20;99.90
17148;DHT22;8689;47.364;8.796;2023-12-04T15:55:29;-1.30;99.90
17148;DHT22;8689;47.364;8.796;2023-12-04T16:15:01;-1.30;99.90
17148;DHT22;8689;47.364;8.796;2023-12-04T16:23:46;-1.40;99.90
17148;DHT22;8689;47.364;8.796;2023-12-04T16:26:13;-1.40;99.90
17148;DHT22;8689;47.364;8.796;2023-12-04T16:28:47;-1.30;99.90
17148;DHT22;8689;47.364;8.796;2023-12-04T16:31:15;-1.30;99.90
17148;DHT22;8689;47.364;8.796;2023-12-04T16:34:02;-1.30;99.90
17148;DHT22;8689;47.364;8.796;2023-12-04T16:39:50;-1.20;99.90
17148;DHT22;8689;47.364;8.796;2023-12-04T16:42:18;-1.20;99.90
17148;DHT22;8689;47.364;8.796;2023-12-04T16:44:46;-1.30;99.90
17148;DHT22;8689;47.364;8.796;2023-12-04T16:47:15;-1.20;99.90
17148;DHT22;8689;47.364;8.796;2023-12-04T16:49:45;-1.20;99.90
17148;DHT22;8689;47.364;8.796;2023-12-04T16:52:12;-1.10;99.90
17148;DHT22;8689;47.364;8.796;2023-12-04T16:54:40;-1.10;99.90
17148;DHT22;8689;47.364;8.796;2023-12-04T16:57:10;-1.10;99.90
17148;DHT22;8689;47.364;8.796;2023-12-04T16:59:42;-1.20;99.90
17148;DHT22;8689;47.364;8.796;2023-12-04T17:02:11;-1.20;99.90
17148;DHT22;8689;47.364;8.796;2023-12-04T17:04:40;-1.30;99.90
17148;DHT22;8689;47.364;8.796;2023-12-04T17:07:31;-1.30;99.90
17148;DHT22;8689;47.364;8.796;2023-12-04T17:10:01;-1.40;99.90
17148;DHT22;8689;47.364;8.796;2023-12-04T17:12:50;-1.50;99.90
17148;DHT22;8689;47.364;8.796;2023-12-04T17:15:22;-1.50;99.90
17148;DHT22;8689;47.364;8.796;2023-12-04T17:18:10;-1.60;99.90
17148;DHT22;8689;47.364;8.796;2023-12-04T17:20:40;-1.70;99.90
17148;DHT22;8689;47.364;8.796;2023-12-04T17:23:09;-1.60;99.90
17148;DHT22;8689;47.364;8.796;2023-12-04T17:25:36;-1.70;99.90
17148;DHT22;8689;47.364;8.796;2023-12-04T17:28:04;-1.70;99.90
17148;DHT22;8689;47.364;8.796;2023-12-04T17:30:31;-1.70;99.90
17148;DHT22;8689;47.364;8.796;2023-12-04T17:32:58;-1.70;99.90
17148;DHT22;8689;47.364;8.796;2023-12-04T17:35:27;-1.60;99.90
17148;DHT22;8689;47.364;8.796;2023-12-04T17:37:56;-1.70;99.90
17148;DHT22;8689;47.364;8.796;2023-12-04T17:40:23;-1.60;99.90
17148;DHT22;8689;47.364;8.796;2023-12-04T17:45:33;-1.70;99.90
17148;DHT22;8689;47.364;8.796;2023-12-04T17:48:30;-1.70;99.90
17148;DHT22;8689;47.364;8.796;2023-12-04T17:51:14;-1.80;99.90
17148;DHT22;8689;47.364;8.796;2023-12-04T17:53:44;-1.90;99.90
17148;DHT22;8689;47.364;8.796;2023-12-04T17:56:22;-1.80;99.90
17148;DHT22;8689;47.364;8.796;2023-12-04T17:59:18;-1.80;99.90
